createdAt,value
2019-04-21T00:01:22.521Z,12.46
2019-04-21T00:03:53.919Z,12.44
2019-04-21T00:06:36.944Z,12.43
2019-04-21T00:09:02.698Z,12.42
2019-04-21T00:11:29.978Z,12.41
2019-04-21T00:13:46.997Z,12.38
2019-04-21T00:16:06.827Z,12.35
2019-04-21T00:18:29.636Z,12.34
2019-04-21T00:20:56.317Z,12.34
2019-04-21T00:23:38.844Z,12.32
2019-04-21T00:25:56.365Z,12.31
2019-04-21T00:28:33.353Z,12.27
2019-04-21T00:30:58.116Z,12.26
2019-04-21T00:33:12.284Z,12.26
2019-04-21T00:35:39.549Z,12.25
2019-04-21T00:38:17.159Z,12.24
2019-04-21T00:40:50.440Z,12.24
2019-04-21T00:43:07.824Z,12.21
2019-04-21T00:45:31.583Z,12.19
2019-04-21T00:48:03.945Z,12.17
2019-04-21T00:50:34.257Z,12.17
2019-04-21T00:55:33.953Z,12.16
2019-04-21T01:00:20.692Z,12.14
2019-04-21T01:05:10.917Z,12.11
2019-04-21T01:07:36.061Z,12.09
2019-04-21T01:09:53.938Z,12.09
2019-04-21T01:12:26.807Z,12.08
2019-04-21T01:14:55.336Z,12.06
2019-04-21T01:17:23.289Z,12.06
2019-04-21T01:19:41.086Z,12.05
2019-04-21T01:21:51.214Z,12.04
2019-04-21T01:24:24.586Z,12.03
2019-04-21T01:26:54.311Z,12.00
2019-04-21T01:29:33.863Z,11.99
2019-04-21T01:32:03.726Z,11.99
2019-04-21T01:34:23.299Z,11.99
2019-04-21T01:36:46.141Z,12.00
2019-04-21T01:39:17.456Z,11.98
2019-04-21T01:41:49.194Z,12.02
2019-04-21T01:44:04.866Z,12.04
2019-04-21T01:46:32.259Z,12.05
2019-04-21T01:48:59.362Z,12.05
2019-04-21T01:51:24.952Z,12.05
2019-04-21T01:53:55.063Z,12.06
2019-04-21T01:56:17.010Z,12.07
2019-04-21T01:58:40.236Z,12.08
2019-04-21T02:01:09.319Z,12.09
2019-04-21T02:06:11.115Z,12.05
2019-04-21T02:08:34.085Z,12.07
2019-04-21T02:11:00.548Z,12.06
2019-04-21T02:13:21.403Z,12.05
2019-04-21T02:15:56.122Z,12.05
2019-04-21T02:18:19.111Z,12.05
2019-04-21T02:20:32.642Z,12.06
2019-04-21T02:25:40.630Z,12.06
2019-04-21T02:28:03.500Z,12.05
2019-04-21T02:30:55.289Z,12.07
2019-04-21T02:33:27.997Z,12.07
2019-04-21T02:42:56.142Z,12.05
2019-04-21T02:45:17.131Z,12.03
2019-04-21T02:50:11.890Z,12.04
2019-04-21T02:55:02.678Z,12.03
2019-04-21T03:00:00.142Z,12.00
2019-04-21T03:02:25.720Z,11.99
2019-04-21T03:14:50.244Z,11.95
2019-04-21T03:16:55.595Z,11.93
2019-04-21T03:19:30.059Z,11.93
2019-04-21T03:22:01.980Z,11.91
2019-04-21T03:24:31.201Z,11.90
2019-04-21T03:26:51.546Z,11.88
2019-04-21T03:29:11.857Z,11.87
2019-04-21T03:32:06.425Z,11.86
2019-04-21T03:36:56.906Z,11.82
2019-04-21T03:41:18.874Z,11.79
2019-04-21T03:43:54.657Z,11.77
2019-04-21T03:46:15.971Z,11.75
2019-04-21T03:48:41.061Z,11.74
2019-04-21T03:51:12.545Z,11.73
2019-04-21T03:53:31.990Z,11.72
2019-04-21T03:56:01.339Z,11.72
2019-04-21T03:58:44.930Z,11.70
2019-04-21T04:01:02.916Z,11.69
2019-04-21T04:03:42.143Z,11.69
2019-04-21T04:05:59.648Z,11.68
2019-04-21T04:08:28.692Z,11.67
2019-04-21T04:10:42.691Z,11.65
2019-04-21T04:13:07.351Z,11.66
2019-04-21T04:15:38.682Z,11.65
2019-04-21T04:17:53.958Z,11.63
2019-04-21T04:20:28.094Z,11.62
2019-04-21T04:30:12.404Z,11.62
2019-04-21T04:32:38.623Z,11.62
2019-04-21T04:35:03.849Z,11.61
2019-04-21T04:37:31.927Z,11.63
2019-04-21T04:40:05.691Z,11.64
2019-04-21T04:49:47.967Z,11.67
2019-04-21T04:54:49.143Z,11.76
2019-04-21T04:59:33.776Z,11.90
2019-04-21T05:04:20.522Z,12.06
2019-04-21T05:06:51.228Z,12.13
2019-04-21T05:09:13.289Z,12.20
2019-04-21T05:11:46.084Z,12.27
2019-04-21T05:19:06.493Z,12.57
2019-04-21T05:21:30.267Z,12.69
2019-04-21T05:23:37.629Z,12.78
2019-04-21T05:26:00.090Z,12.88
2019-04-21T05:28:24.068Z,12.99
2019-04-21T05:31:04.372Z,13.11
2019-04-21T05:33:27.552Z,13.20
2019-04-21T05:35:53.051Z,13.32
2019-04-21T05:38:10.237Z,13.42
2019-04-21T05:40:37.383Z,13.52
2019-04-21T05:43:14.107Z,13.62
2019-04-21T05:45:34.786Z,13.71
2019-04-21T05:48:12.077Z,13.80
2019-04-21T05:50:26.565Z,13.91
2019-04-21T05:52:51.938Z,14.01
2019-04-21T05:55:26.148Z,14.11
2019-04-21T05:57:47.844Z,14.20
2019-04-21T06:00:19.677Z,14.31
2019-04-21T06:02:42.010Z,14.39
2019-04-21T06:05:21.988Z,14.50
2019-04-21T06:07:34.928Z,14.58
2019-04-21T06:09:59.974Z,14.69
2019-04-21T06:12:29.769Z,14.79
2019-04-21T06:14:54.778Z,14.97
2019-04-21T06:17:28.378Z,15.12
2019-04-21T06:19:49.361Z,15.09
2019-04-21T06:22:07.724Z,14.83
2019-04-21T06:24:51.014Z,14.44
2019-04-21T06:27:22.499Z,14.43
2019-04-21T06:29:33.117Z,14.67
2019-04-21T06:32:21.908Z,14.98
2019-04-21T06:34:24.416Z,15.04
2019-04-21T06:39:28.311Z,15.19
2019-04-21T06:41:42.562Z,15.31
2019-04-21T06:44:12.946Z,15.39
2019-04-21T06:46:36.653Z,15.54
2019-04-21T06:51:32.302Z,15.55
2019-04-21T06:53:59.704Z,15.33
2019-04-21T06:56:23.823Z,15.09
2019-04-21T06:58:42.885Z,15.08
2019-04-21T07:01:17.235Z,15.32
2019-04-21T07:03:42.168Z,15.66
2019-04-21T07:06:09.362Z,15.77
2019-04-21T07:08:42.061Z,15.69
2019-04-21T07:10:56.741Z,15.88
2019-04-21T07:13:22.235Z,15.91
2019-04-21T07:15:53.140Z,16.12
2019-04-21T07:18:21.498Z,16.30
2019-04-21T07:20:45.046Z,16.23
2019-04-21T07:23:11.895Z,16.38
2019-04-21T07:25:39.018Z,16.27
2019-04-21T07:28:17.547Z,16.37
2019-04-21T07:30:32.757Z,16.49
2019-04-21T07:33:07.170Z,16.60
2019-04-21T07:35:22.152Z,16.60
2019-04-21T07:37:51.024Z,16.62
2019-04-21T07:40:09.467Z,16.49
2019-04-21T07:42:32.864Z,16.82
2019-04-21T07:44:57.592Z,16.95
2019-04-21T07:47:30.613Z,16.92
2019-04-21T07:50:00.524Z,17.16
2019-04-21T07:52:22.123Z,17.34
2019-04-21T07:54:57.559Z,16.90
2019-04-21T07:57:13.002Z,17.03
2019-04-21T07:59:52.024Z,17.00
2019-04-21T08:02:12.177Z,17.17
2019-04-21T08:06:56.670Z,17.33
2019-04-21T08:09:27.635Z,17.61
2019-04-21T08:11:50.041Z,17.90
2019-04-21T08:14:24.311Z,18.12
2019-04-21T08:16:53.966Z,18.34
2019-04-21T08:19:13.004Z,18.55
2019-04-21T08:21:41.996Z,18.38
2019-04-21T08:24:06.191Z,18.21
2019-04-21T08:26:38.345Z,18.45
2019-04-21T08:29:07.790Z,18.72
2019-04-21T08:31:34.407Z,19.02
2019-04-21T08:33:55.391Z,19.16
2019-04-21T08:41:08.691Z,18.91
2019-04-21T08:46:01.966Z,18.94
2019-04-21T08:48:29.110Z,19.13
2019-04-21T08:51:06.287Z,19.30
2019-04-21T08:53:19.612Z,19.56
2019-04-21T09:00:45.189Z,19.94
2019-04-21T09:03:09.191Z,19.95
2019-04-21T09:05:34.280Z,19.94
2019-04-21T09:07:57.156Z,19.86
2019-04-21T09:10:22.308Z,19.78
2019-04-21T09:12:50.485Z,19.83
2019-04-21T09:15:19.098Z,19.92
2019-04-21T09:17:37.738Z,19.95
2019-04-21T09:20:20.953Z,19.95
2019-04-21T09:22:37.827Z,20.05
2019-04-21T09:25:05.891Z,20.11
2019-04-21T09:27:29.342Z,20.15
2019-04-21T09:29:44.690Z,20.34
2019-04-21T09:32:03.793Z,20.40
2019-04-21T09:34:35.931Z,20.27
2019-04-21T09:37:12.685Z,20.33
2019-04-21T09:39:25.575Z,20.55
2019-04-21T09:41:49.928Z,20.63
2019-04-21T09:44:22.071Z,20.84
2019-04-21T09:46:46.619Z,20.95
2019-04-21T09:49:12.111Z,20.83
2019-04-21T09:51:34.503Z,20.84
2019-04-21T09:54:05.792Z,20.97
2019-04-21T09:56:37.677Z,21.04
2019-04-21T09:59:07.219Z,21.09
2019-04-21T10:01:26.821Z,21.12
2019-04-21T10:03:48.683Z,21.03
2019-04-21T10:06:13.948Z,21.06
2019-04-21T10:08:38.606Z,21.05
2019-04-21T10:11:05.325Z,21.04
2019-04-21T10:13:31.740Z,21.09
2019-04-21T10:15:56.630Z,21.18
2019-04-21T10:18:22.953Z,21.22
2019-04-21T10:20:49.300Z,21.07
2019-04-21T10:23:15.702Z,20.87
2019-04-21T10:25:42.869Z,20.85
2019-04-21T10:28:08.272Z,20.73
2019-04-21T10:30:34.774Z,20.64
2019-04-21T10:33:00.913Z,20.72
2019-04-21T10:35:27.234Z,20.82
2019-04-21T10:38:05.729Z,20.65
2019-04-21T10:40:21.168Z,20.46
2019-04-21T10:42:46.195Z,20.23
2019-04-21T10:45:12.751Z,20.32
2019-04-21T10:47:39.161Z,20.56
2019-04-21T10:50:06.651Z,20.76
2019-04-21T10:52:34.023Z,20.94
2019-04-21T10:55:23.378Z,21.00
2019-04-21T10:57:24.596Z,21.07
2019-04-21T10:59:53.861Z,21.00
2019-04-21T11:02:17.329Z,20.88
2019-04-21T11:04:44.047Z,20.77
2019-04-21T11:07:14.052Z,20.56
2019-04-21T11:09:36.270Z,20.38
2019-04-21T11:12:03.990Z,20.35
2019-04-21T11:14:29.386Z,20.35
2019-04-21T11:16:56.601Z,20.29
2019-04-21T11:19:22.135Z,20.26
2019-04-21T11:21:49.206Z,20.31
2019-04-21T11:24:14.351Z,20.51
2019-04-21T11:26:40.551Z,20.65
2019-04-21T11:29:07.289Z,20.69
2019-04-21T11:31:33.431Z,20.87
2019-04-21T11:34:00.782Z,20.81
2019-04-21T11:36:26.998Z,20.73
2019-04-21T11:39:07.253Z,20.73
2019-04-21T11:41:19.420Z,20.76
2019-04-21T11:43:45.481Z,20.74
2019-04-21T11:46:12.757Z,20.66
2019-04-21T11:48:38.051Z,20.56
2019-04-21T11:51:04.738Z,20.58
2019-04-21T11:53:30.847Z,20.60
2019-04-21T11:55:57.113Z,20.48
2019-04-21T11:58:23.676Z,20.07
2019-04-21T12:00:50.885Z,19.74
2019-04-21T12:03:17.388Z,19.64
2019-04-21T12:05:43.498Z,19.62
2019-04-21T12:08:21.275Z,19.61
2019-04-21T12:10:35.545Z,19.63
2019-04-21T12:13:03.023Z,19.70
2019-04-21T12:15:29.095Z,19.64
2019-04-21T12:17:54.300Z,19.75
2019-04-21T12:20:20.915Z,19.83
2019-04-21T12:22:47.437Z,20.00
2019-04-21T12:25:13.397Z,19.97
2019-04-21T12:27:40.062Z,19.96
2019-04-21T12:30:06.042Z,19.96
2019-04-21T12:32:32.119Z,19.99
2019-04-21T12:34:59.711Z,20.08
2019-04-21T12:37:24.783Z,20.08
2019-04-21T12:39:52.485Z,20.05
2019-04-21T12:42:18.545Z,20.06
2019-04-21T12:44:43.767Z,20.04
2019-04-21T12:47:10.194Z,19.99
2019-04-21T12:49:36.414Z,19.84
2019-04-21T12:52:03.797Z,19.78
2019-04-21T12:54:29.860Z,19.77
2019-04-21T12:56:55.762Z,19.83
2019-04-21T12:59:21.774Z,19.87
2019-04-21T13:01:48.630Z,19.88
2019-04-21T13:04:15.614Z,19.89
2019-04-21T13:06:41.504Z,19.92
2019-04-21T13:09:10.720Z,19.82
2019-04-21T13:11:33.393Z,19.70
2019-04-21T13:13:59.907Z,19.66
2019-04-21T13:16:27.467Z,19.64
2019-04-21T13:18:53.432Z,19.57
2019-04-21T13:21:18.703Z,19.49
2019-04-21T13:23:45.184Z,19.54
2019-04-21T13:26:11.474Z,19.67
2019-04-21T13:28:37.775Z,19.75
2019-04-21T13:31:04.391Z,19.81
2019-04-21T13:33:31.246Z,19.82
2019-04-21T13:35:57.241Z,19.77
2019-04-21T13:38:32.567Z,19.67
2019-04-21T13:41:05.396Z,19.60
2019-04-21T13:43:16.951Z,19.50
2019-04-21T13:45:41.981Z,19.43
2019-04-21T13:48:08.423Z,19.38
2019-04-21T13:50:35.325Z,19.37
2019-04-21T13:53:00.972Z,19.45
2019-04-21T13:55:27.548Z,19.45
2019-04-21T13:57:54.512Z,19.33
2019-04-21T14:00:21.291Z,19.37
2019-04-21T14:02:46.990Z,19.36
2019-04-21T14:05:15.246Z,19.37
2019-04-21T14:07:38.919Z,19.38
2019-04-21T14:10:08.439Z,19.38
2019-04-21T14:12:31.657Z,19.39
2019-04-21T14:14:57.905Z,19.33
2019-04-21T14:17:24.669Z,19.30
2019-04-21T14:19:51.042Z,19.33
2019-04-21T14:22:18.014Z,19.36
2019-04-21T14:24:43.750Z,19.42
2019-04-21T14:27:10.177Z,19.47
2019-04-21T14:29:35.891Z,19.45
2019-04-21T14:32:02.225Z,19.46
2019-04-21T14:34:28.534Z,19.50
2019-04-21T14:36:55.046Z,19.58
2019-04-21T14:39:22.765Z,19.49
2019-04-21T14:41:48.309Z,19.35
2019-04-21T14:44:15.157Z,19.28
2019-04-21T14:46:40.178Z,19.29
2019-04-21T14:49:06.510Z,19.35
2019-04-21T14:51:32.826Z,19.46
2019-04-21T14:53:59.704Z,19.46
2019-04-21T14:56:25.505Z,19.47
2019-04-21T14:58:55.296Z,19.47
2019-04-21T15:01:18.162Z,19.47
2019-04-21T15:03:45.664Z,19.39
2019-04-21T15:06:11.622Z,19.21
2019-04-21T15:08:37.454Z,19.20
2019-04-21T15:11:03.488Z,19.25
2019-04-21T15:13:30.111Z,19.25
2019-04-21T15:15:56.307Z,19.23
2019-04-21T15:18:22.973Z,19.18
2019-04-21T15:20:50.466Z,19.14
2019-04-21T15:23:15.443Z,19.06
2019-04-21T15:25:41.979Z,19.00
2019-04-21T15:28:09.302Z,18.97
2019-04-21T15:30:34.517Z,18.88
2019-04-21T15:33:00.757Z,18.82
2019-04-21T15:35:27.079Z,18.75
2019-04-21T15:37:53.737Z,18.73
2019-04-21T15:40:31.503Z,18.70
2019-04-21T15:42:46.497Z,18.62
2019-04-21T15:45:12.783Z,18.55
2019-04-21T15:47:39.994Z,18.50
2019-04-21T15:50:10.175Z,18.47
2019-04-21T15:52:31.833Z,18.47
2019-04-21T15:54:58.944Z,18.45
2019-04-21T15:57:24.256Z,18.43
2019-04-21T15:59:50.745Z,18.39
2019-04-21T16:02:16.898Z,18.38
2019-04-21T16:04:43.215Z,18.42
2019-04-21T16:07:09.706Z,18.48
2019-04-21T16:09:37.550Z,18.45
2019-04-21T16:12:04.075Z,18.37
2019-04-21T16:14:29.138Z,18.33
2019-04-21T16:16:56.948Z,18.27
2019-04-21T16:19:23.039Z,18.20
2019-04-21T16:21:48.658Z,18.16
2019-04-21T16:24:14.417Z,18.19
2019-04-21T16:26:40.741Z,18.17
2019-04-21T16:29:07.209Z,18.23
2019-04-21T16:31:34.288Z,18.20
2019-04-21T16:34:00.949Z,18.12
2019-04-21T16:36:27.335Z,18.05
2019-04-21T16:38:53.610Z,17.98
2019-04-21T16:41:20.227Z,17.97
2019-04-21T16:43:45.099Z,17.98
2019-04-21T16:46:11.422Z,17.96
2019-04-21T16:48:37.893Z,17.90
2019-04-21T16:51:04.089Z,17.88
2019-04-21T16:53:30.415Z,17.83
2019-04-21T16:55:57.346Z,17.80
2019-04-21T16:58:26.621Z,17.75
2019-04-21T17:00:57.351Z,17.69
2019-04-21T17:03:16.635Z,17.68
2019-04-21T17:05:42.513Z,17.75
2019-04-21T17:08:08.345Z,17.75
2019-04-21T17:10:35.007Z,17.70
2019-04-21T17:13:02.299Z,17.65
2019-04-21T17:15:42.066Z,17.62
2019-04-21T17:18:07.597Z,17.57
2019-04-21T17:20:35.468Z,17.55
2019-04-21T17:22:46.300Z,17.53
2019-04-21T17:25:14.078Z,17.49
2019-04-21T17:27:39.120Z,17.42
2019-04-21T17:30:06.378Z,17.33
2019-04-21T17:32:37.195Z,17.26
2019-04-21T17:34:58.105Z,17.14
2019-04-21T17:37:26.820Z,17.08
2019-04-21T17:39:50.613Z,17.05
2019-04-21T17:42:26.473Z,17.01
2019-04-21T17:44:43.390Z,17.03
2019-04-21T17:47:21.804Z,17.05
2019-04-21T17:49:37.153Z,17.01
2019-04-21T17:52:06.381Z,16.95
2019-04-21T17:54:35.659Z,16.96
2019-04-21T17:57:20.276Z,16.93
2019-04-21T17:59:50.680Z,16.91
2019-04-21T18:02:03.977Z,16.92
2019-04-21T18:04:30.744Z,16.91
2019-04-21T18:06:54.417Z,16.89
2019-04-21T18:09:28.713Z,16.81
2019-04-21T18:11:53.946Z,16.76
2019-04-21T18:13:59.744Z,16.71
2019-04-21T18:16:34.299Z,16.67
2019-04-21T18:18:52.976Z,16.61
2019-04-21T18:21:18.733Z,16.58
2019-04-21T18:23:56.341Z,16.54
2019-04-21T18:26:24.649Z,16.48
2019-04-21T18:28:38.867Z,16.34
2019-04-21T18:31:06.727Z,16.26
2019-04-21T18:33:35.523Z,16.20
2019-04-21T18:35:59.702Z,16.24
2019-04-21T18:38:29.556Z,16.22
2019-04-21T18:40:54.272Z,16.20
2019-04-21T18:43:50.178Z,16.20
2019-04-21T18:46:06.887Z,16.12
2019-04-21T18:48:19.429Z,16.09
2019-04-21T18:50:45.637Z,16.05
2019-04-21T18:53:14.423Z,16.00
2019-04-21T18:55:34.500Z,15.94
2019-04-21T18:57:56.312Z,15.94
2019-04-21T19:00:26.214Z,15.90
2019-04-21T19:02:51.778Z,15.90
2019-04-21T19:05:19.136Z,15.88
2019-04-21T19:08:00.559Z,15.86
2019-04-21T19:10:36.276Z,15.78
2019-04-21T19:15:16.310Z,15.67
2019-04-21T19:18:25.385Z,15.67
2019-04-21T19:20:11.783Z,15.61
2019-04-21T19:22:38.152Z,15.59
2019-04-21T19:25:10.868Z,15.56
2019-04-21T19:27:28.106Z,15.52
2019-04-21T19:34:35.974Z,15.48
2019-04-21T19:37:03.975Z,15.43
2019-04-21T19:39:39.168Z,15.39
2019-04-21T19:42:00.527Z,15.26
2019-04-21T19:44:35.196Z,15.17
2019-04-21T19:47:00.026Z,15.08
2019-04-21T19:49:35.036Z,15.07
2019-04-21T19:51:48.486Z,15.11
2019-04-21T19:54:11.017Z,15.04
2019-04-21T19:56:27.933Z,15.10
2019-04-21T19:58:53.256Z,15.10
2019-04-21T20:01:19.590Z,15.07
2019-04-21T20:03:49.860Z,15.04
2019-04-21T20:06:31.585Z,15.03
2019-04-21T20:09:00.693Z,15.01
2019-04-21T20:11:27.111Z,15.01
2019-04-21T20:14:33.943Z,14.95
2019-04-21T20:16:19.033Z,14.92
2019-04-21T20:18:32.569Z,14.92
2019-04-21T20:20:50.307Z,14.88
2019-04-21T20:23:22.886Z,14.90
2019-04-21T20:25:49.060Z,14.90
2019-04-21T20:28:21.401Z,14.88
2019-04-21T20:30:58.420Z,14.83
2019-04-21T20:33:41.324Z,14.58
2019-04-21T20:35:51.993Z,14.74
2019-04-21T20:38:09.443Z,14.63
2019-04-21T20:40:30.893Z,14.51
2019-04-21T20:43:08.694Z,14.48
2019-04-21T20:45:49.425Z,14.41
2019-04-21T20:47:44.750Z,14.34
2019-04-21T20:50:22.802Z,14.30
2019-04-21T20:52:54.069Z,14.25
2019-04-21T20:55:11.991Z,14.28
2019-04-21T20:57:40.823Z,14.32
2019-04-21T21:00:16.818Z,14.30
2019-04-21T21:02:36.702Z,14.27
2019-04-21T21:04:51.570Z,14.25
2019-04-21T21:07:40.442Z,14.22
2019-04-21T21:10:01.207Z,14.13
2019-04-21T21:12:28.993Z,14.08
2019-04-21T21:14:41.992Z,14.05
2019-04-21T21:17:25.381Z,14.01
2019-04-21T21:19:43.871Z,13.96
2019-04-21T21:22:01.448Z,13.97
2019-04-21T21:24:36.418Z,13.91
2019-04-21T21:26:58.176Z,13.82
2019-04-21T21:29:26.451Z,13.73
2019-04-21T21:32:04.276Z,13.73
2019-04-21T21:34:25.903Z,13.67
2019-04-21T21:36:41.556Z,13.69
2019-04-21T21:39:12.908Z,13.67
2019-04-21T21:41:26.561Z,13.57
2019-04-21T21:43:51.497Z,13.52
2019-04-21T21:46:30.951Z,13.45
2019-04-21T21:48:52.945Z,13.43
2019-04-21T21:51:15.481Z,13.39
2019-04-21T21:53:34.145Z,13.33
2019-04-21T21:55:58.539Z,13.27
2019-04-21T21:58:27.467Z,13.26
2019-04-21T22:00:56.472Z,13.19
2019-04-21T22:03:24.460Z,13.15
2019-04-21T22:05:48.897Z,13.13
2019-04-21T22:08:10.152Z,13.16
2019-04-21T22:10:35.210Z,13.16
2019-04-21T22:13:07.194Z,13.18
2019-04-21T22:15:30.349Z,13.14
2019-04-21T22:18:14.659Z,13.15
2019-04-21T22:20:37.564Z,13.19
2019-04-21T22:22:56.375Z,13.10
2019-04-21T22:25:21.862Z,13.03
2019-04-21T22:27:39.458Z,13.02
2019-04-21T22:30:07.827Z,13.06
2019-04-21T22:32:34.623Z,13.10
2019-04-21T22:35:03.757Z,13.12
2019-04-21T22:37:38.784Z,13.01
2019-04-21T22:40:04.474Z,12.92
2019-04-21T22:42:22.395Z,12.89
2019-04-21T22:44:43.710Z,12.80
2019-04-21T22:47:16.918Z,12.77
2019-04-21T22:49:36.867Z,12.83
2019-04-21T22:52:10.379Z,12.85
2019-04-21T22:54:35.457Z,12.83
2019-04-21T22:57:02.595Z,12.74
2019-04-21T22:59:24.106Z,12.65
2019-04-21T23:01:50.387Z,12.64
2019-04-21T23:04:15.856Z,12.73
2019-04-21T23:06:41.254Z,12.76
2019-04-21T23:09:07.157Z,12.71
2019-04-21T23:11:37.384Z,12.69
2019-04-21T23:14:04.258Z,12.60
2019-04-21T23:16:31.648Z,12.50
2019-04-21T23:19:13.099Z,12.46
2019-04-21T23:21:30.361Z,12.47
2019-04-21T23:24:05.855Z,12.48
2019-04-21T23:26:29.770Z,12.46
2019-04-21T23:28:56.828Z,12.51
2019-04-21T23:31:24.491Z,12.48
2019-04-21T23:33:31.454Z,12.47
2019-04-21T23:36:03.989Z,12.44
2019-04-21T23:38:29.244Z,12.48
2019-04-21T23:40:55.914Z,12.38
2019-04-21T23:43:20.960Z,12.29
2019-04-21T23:45:44.830Z,12.29
2019-04-21T23:48:19.780Z,12.26
2019-04-21T23:50:45.856Z,12.14
2019-04-21T23:53:01.615Z,12.06
2019-04-21T23:55:27.392Z,12.04
2019-04-21T23:58:04.944Z,11.96
